LGMK Airport Information

Runway Information
Runway 16 Length 6244 ft width 98 ft
Elevation 395 ft Threshold 0 ft Heading 160
Runway 34 Length 6244 ft Width 98 ft
Elevation 388 ft Threshold 0 ft Heading 340
Airport Frequencies
Type A/G Name RDO Frequency 563.7 MHZ
Type APP Name APP Frequency 118.75 MHZ
Type TWR Name TWR Frequency 118.75 MHZ
Airport Navaids
Type VOR-DME Name Mikonos Frequency 110000 KHZ
Type NDB Name Mikonos Frequency 401 KHZ
Airport Weather Information & NOTAM
ADDS - METARS form results

(0603 UTC 16 September 2019)
Data provider http://aviationweather.gov/metar/data/
 
METAR text: LGMK 160550Z 36018KT CAVOK 21/12 Q1015
Conditions at: LGMK (MIKONOS ISLAND , GR) observed 0550 UTC 16 September 2019
Temperature: 21.0°C (70°F)
Dewpoint: 12.0°C (54°F) [RH = 56%]
Pressure (altimeter): 29.97 inches Hg (1015.0 mb)
Winds: from the N (360 degrees) at 21 MPH (18 knots; 9.3 m/s)
Visibility: 6 or more miles (10+ km)
Ceiling: ceiling and visibility are OK
Clouds: unknown
Weather: no significant weather observed at this time

METAR text: LGMK 160520Z 36012KT CAVOK 21/12 Q1015
Conditions at: LGMK (MIKONOS ISLAND , GR) observed 0520 UTC 16 September 2019
Temperature: 21.0°C (70°F)
Dewpoint: 12.0°C (54°F) [RH = 56%]
Pressure (altimeter): 29.97 inches Hg (1015.0 mb)
Winds: from the N (360 degrees) at 14 MPH (12 knots; 6.2 m/s)
Visibility: 6 or more miles (10+ km)
Ceiling: ceiling and visibility are OK
Clouds: unknown
Weather: no significant weather observed at this time

Forecast for: LGMK (MIKONOS ISLAND , GR)
Text: TAF LGMK 160500Z 1606/1615 36018G30KT 9999 FEW025
Forecast period: 0600 to 1500 UTC 16 September 2019
Forecast type: FROM: standard forecast or significant change
Winds: from the N (360 degrees) at 21 MPH (18 knots; 9.3 m/s)
gusting to 34 MPH (30 knots; 15.4 m/s)
Visibility: 6 or more miles 10+ km)
Ceiling: at least 12,000 feet AGL
Clouds: few clouds at 2500 feet AGL
Weather: no significant weather forecast for this period